createdAt,value
2017-12-04T00:00:26.974Z,3.63
2017-12-04T00:01:26.949Z,3.68
2017-12-04T00:02:26.886Z,3.68
2017-12-04T00:03:26.868Z,3.66
2017-12-04T00:04:26.805Z,3.65
2017-12-04T00:05:26.765Z,3.74
2017-12-04T00:06:26.722Z,3.68
2017-12-04T00:07:26.771Z,3.76
2017-12-04T00:08:26.695Z,3.76
2017-12-04T00:09:26.612Z,3.84
2017-12-04T00:10:26.687Z,3.77
2017-12-04T00:11:26.525Z,3.77
2017-12-04T00:12:26.499Z,3.86
2017-12-04T00:13:26.462Z,3.83
2017-12-04T00:14:26.468Z,3.83
2017-12-04T00:15:26.380Z,3.80
2017-12-04T00:16:26.328Z,3.88
2017-12-04T00:17:26.291Z,3.83
2017-12-04T00:18:26.242Z,3.78
2017-12-04T00:19:26.206Z,3.83
2017-12-04T00:20:26.193Z,3.84
2017-12-04T00:21:26.123Z,3.86
2017-12-04T00:22:26.078Z,3.84
2017-12-04T00:23:26.050Z,3.84
2017-12-04T00:24:26.013Z,3.81
2017-12-04T00:25:25.972Z,3.78
2017-12-04T00:26:25.925Z,3.80
2017-12-04T00:27:25.885Z,3.86
2017-12-04T00:28:25.851Z,3.81
2017-12-04T00:29:25.805Z,3.83
2017-12-04T00:30:25.785Z,3.80
2017-12-04T00:31:25.727Z,3.83
2017-12-04T00:32:25.708Z,3.87
2017-12-04T00:33:25.652Z,3.81
2017-12-04T00:34:26.096Z,3.81
2017-12-04T00:35:25.558Z,3.87
2017-12-04T00:36:25.525Z,3.83
2017-12-04T00:37:26.085Z,3.80
2017-12-04T00:38:25.449Z,3.77
2017-12-04T00:39:25.405Z,3.81
2017-12-04T00:40:25.373Z,3.88
2017-12-04T00:41:25.325Z,3.84
2017-12-04T00:42:25.287Z,3.88
2017-12-04T00:43:25.257Z,3.81
2017-12-04T00:44:25.224Z,3.81
2017-12-04T00:45:25.394Z,3.95
2017-12-04T00:46:25.126Z,3.88
2017-12-04T00:47:25.103Z,3.96
2017-12-04T00:48:25.047Z,3.95
2017-12-04T00:49:25.008Z,3.95
2017-12-04T00:50:24.988Z,3.96
2017-12-04T00:51:25.671Z,3.96
2017-12-04T00:52:24.880Z,3.94
2017-12-04T00:53:24.868Z,3.99
2017-12-04T00:54:24.823Z,3.98
2017-12-04T00:55:24.766Z,3.94
2017-12-04T00:56:24.788Z,3.92
2017-12-04T00:57:24.686Z,3.99
2017-12-04T00:58:24.645Z,3.92
2017-12-04T00:59:24.666Z,3.94
2017-12-04T01:00:24.567Z,3.88
2017-12-04T01:01:24.525Z,3.94
2017-12-04T01:02:24.516Z,3.91
2017-12-04T01:03:24.461Z,3.98
2017-12-04T01:04:24.473Z,3.91
2017-12-04T01:05:24.367Z,3.98
2017-12-04T01:06:24.356Z,3.91
2017-12-04T01:07:24.285Z,3.94
2017-12-04T01:08:24.260Z,3.92
2017-12-04T01:09:24.203Z,3.92
2017-12-04T01:10:24.174Z,3.94
2017-12-04T01:11:24.121Z,3.94
2017-12-04T01:12:24.083Z,3.88
2017-12-04T01:13:24.047Z,3.88
2017-12-04T01:14:24.006Z,3.86
2017-12-04T01:15:23.967Z,3.96
2017-12-04T01:16:24.250Z,4.01
2017-12-04T01:17:23.887Z,3.95
2017-12-04T01:18:23.848Z,4.01
2017-12-04T01:19:23.828Z,4.05
2017-12-04T01:20:23.773Z,4.01
2017-12-04T01:21:23.732Z,4.01
2017-12-04T01:22:23.680Z,3.91
2017-12-04T01:23:23.646Z,3.98
2017-12-04T01:24:23.624Z,3.99
2017-12-04T01:25:23.560Z,4.01
2017-12-04T01:26:23.527Z,3.98
2017-12-04T01:27:23.485Z,3.96
2017-12-04T01:28:23.447Z,3.96
2017-12-04T01:29:25.250Z,3.96
2017-12-04T01:30:24.249Z,3.95
2017-12-04T01:31:24.248Z,3.95
2017-12-04T01:32:23.287Z,3.95
2017-12-04T01:33:23.253Z,3.92
2017-12-04T01:34:23.237Z,3.96
2017-12-04T01:35:23.168Z,3.94
2017-12-04T01:36:23.129Z,4.02
2017-12-04T01:37:23.105Z,3.96
2017-12-04T01:38:23.041Z,3.96
2017-12-04T01:39:23.046Z,3.95
2017-12-04T01:40:22.966Z,3.98
2017-12-04T01:41:22.925Z,3.98
2017-12-04T01:42:22.898Z,3.96
2017-12-04T01:43:22.854Z,3.99
2017-12-04T01:44:22.859Z,3.91
2017-12-04T01:45:22.765Z,4.06
2017-12-04T01:46:22.730Z,4.08
2017-12-04T01:47:22.698Z,3.98
2017-12-04T01:48:23.132Z,4.06
2017-12-04T01:49:22.622Z,3.99
2017-12-04T01:50:22.585Z,4.08
2017-12-04T01:51:22.528Z,3.94
2017-12-04T01:52:22.495Z,4.05
2017-12-04T01:53:22.446Z,4.08
2017-12-04T01:54:22.408Z,4.12
2017-12-04T01:55:22.378Z,4.06
2017-12-04T01:56:22.340Z,4.04
2017-12-04T01:57:22.281Z,4.05
2017-12-04T01:58:22.243Z,4.06
2017-12-04T01:59:22.444Z,4.02
2017-12-04T02:00:22.168Z,3.99
2017-12-04T02:01:22.131Z,4.08
2017-12-04T02:02:22.088Z,4.17
2017-12-04T02:03:22.041Z,4.13
2017-12-04T02:04:22.012Z,4.05
2017-12-04T02:05:21.966Z,4.10
2017-12-04T02:06:21.924Z,4.04
2017-12-04T02:07:21.889Z,4.08
2017-12-04T02:08:21.858Z,3.96
2017-12-04T02:09:21.830Z,4.05
2017-12-04T02:10:21.769Z,4.01
2017-12-04T02:11:21.723Z,3.99
2017-12-04T02:12:21.693Z,4.08
2017-12-04T02:13:21.661Z,3.99
2017-12-04T02:14:21.620Z,4.02
2017-12-04T02:15:21.565Z,4.06
2017-12-04T02:16:21.539Z,3.98
2017-12-04T02:17:21.524Z,3.99
2017-12-04T02:18:21.471Z,4.02
2017-12-04T02:19:21.419Z,4.02
2017-12-04T02:20:21.369Z,4.06
2017-12-04T02:21:21.335Z,4.06
2017-12-04T02:22:21.361Z,4.05
2017-12-04T02:23:21.323Z,4.06
2017-12-04T02:24:21.210Z,4.14
2017-12-04T02:25:21.328Z,4.13
2017-12-04T02:26:21.145Z,4.16
2017-12-04T02:27:21.091Z,4.20
2017-12-04T02:28:21.050Z,4.22
2017-12-04T02:29:21.043Z,4.16
2017-12-04T02:30:21.011Z,4.13
2017-12-04T02:31:20.926Z,4.17
2017-12-04T02:32:20.911Z,4.16
2017-12-04T02:33:20.852Z,4.23
2017-12-04T02:34:20.811Z,4.24
2017-12-04T02:35:20.778Z,4.22
2017-12-04T02:36:20.732Z,4.17
2017-12-04T02:37:20.692Z,4.20
2017-12-04T02:38:20.708Z,4.23
2017-12-04T02:39:20.612Z,4.19
2017-12-04T02:40:20.600Z,4.23
2017-12-04T02:41:20.567Z,4.26
2017-12-04T02:42:20.491Z,4.19
2017-12-04T02:43:20.470Z,4.16
2017-12-04T02:44:20.451Z,4.20
2017-12-04T02:45:20.624Z,4.20
2017-12-04T02:46:20.362Z,4.20
2017-12-04T02:47:20.319Z,4.23
2017-12-04T02:48:20.306Z,4.12
2017-12-04T02:49:20.214Z,4.17
2017-12-04T02:50:20.250Z,4.19
2017-12-04T02:51:20.131Z,4.28
2017-12-04T02:52:20.152Z,4.19
2017-12-04T02:53:20.058Z,4.19
2017-12-04T02:54:20.022Z,4.22
2017-12-04T02:55:19.975Z,4.19
2017-12-04T02:56:19.963Z,4.20
2017-12-04T02:57:19.901Z,4.17
2017-12-04T02:58:19.866Z,4.17
2017-12-04T02:59:19.821Z,4.22
2017-12-04T03:00:19.794Z,4.17
2017-12-04T03:01:19.754Z,4.14
2017-12-04T03:02:19.692Z,4.20
2017-12-04T03:03:19.696Z,4.23
2017-12-04T03:04:19.620Z,4.23
2017-12-04T03:05:19.594Z,4.23
2017-12-04T03:06:19.536Z,4.20
2017-12-04T03:07:19.555Z,4.26
2017-12-04T03:08:19.456Z,4.20
2017-12-04T03:09:19.446Z,4.22
2017-12-04T03:10:19.377Z,4.16
2017-12-04T03:11:19.338Z,4.22
2017-12-04T03:12:19.298Z,4.24
2017-12-04T03:13:19.264Z,4.23
2017-12-04T03:14:19.254Z,4.19
2017-12-04T03:15:19.185Z,4.17
2017-12-04T03:16:19.167Z,4.13
2017-12-04T03:17:19.100Z,4.28
2017-12-04T03:18:19.070Z,4.22
2017-12-04T03:19:19.044Z,4.17
2017-12-04T03:20:18.984Z,4.31
2017-12-04T03:21:18.938Z,4.22
2017-12-04T03:22:18.897Z,4.19
2017-12-04T03:23:18.857Z,4.20
2017-12-04T03:24:18.843Z,4.19
2017-12-04T03:25:18.788Z,4.16
2017-12-04T03:26:18.739Z,4.24
2017-12-04T03:27:18.696Z,4.20
2017-12-04T03:28:18.704Z,4.22
2017-12-04T03:29:18.618Z,4.16
2017-12-04T03:30:18.619Z,4.26
2017-12-04T03:31:18.538Z,4.30
2017-12-04T03:32:18.562Z,4.28
2017-12-04T03:33:18.464Z,4.28
2017-12-04T03:34:18.413Z,4.23
2017-12-04T03:35:18.375Z,4.35
2017-12-04T03:36:18.340Z,4.32
2017-12-04T03:37:18.310Z,4.30
2017-12-04T03:38:18.275Z,4.22
2017-12-04T03:39:18.227Z,4.30
2017-12-04T03:40:18.204Z,4.26
2017-12-04T03:41:18.146Z,4.34
2017-12-04T03:42:18.115Z,4.38
2017-12-04T03:43:18.062Z,4.37
2017-12-04T03:44:18.045Z,4.37
2017-12-04T03:45:17.975Z,4.32
2017-12-04T03:46:17.962Z,4.38
2017-12-04T03:47:17.906Z,4.38
2017-12-04T03:48:17.863Z,4.38
2017-12-04T03:49:17.825Z,4.40
2017-12-04T03:50:17.793Z,4.37
2017-12-04T03:51:17.739Z,4.34
2017-12-04T03:52:17.696Z,4.34
2017-12-04T03:53:17.689Z,4.37
2017-12-04T03:54:17.663Z,4.41
2017-12-04T03:55:18.107Z,4.40
2017-12-04T03:56:17.546Z,4.38
2017-12-04T03:57:17.599Z,4.42
2017-12-04T03:58:17.488Z,4.45
2017-12-04T03:59:18.118Z,4.45
2017-12-04T04:00:17.399Z,4.48
2017-12-04T04:01:17.359Z,4.40
2017-12-04T04:02:17.373Z,4.35
2017-12-04T04:03:17.260Z,4.32
2017-12-04T04:04:17.276Z,4.49
2017-12-04T04:05:17.179Z,4.34
2017-12-04T04:06:17.142Z,4.42
2017-12-04T04:07:17.142Z,4.44
2017-12-04T04:08:17.084Z,4.40
2017-12-04T04:09:17.066Z,4.45
2017-12-04T04:10:17.011Z,4.44
2017-12-04T04:11:16.964Z,4.42
2017-12-04T04:12:16.914Z,4.37
2017-12-04T04:13:16.867Z,4.38
2017-12-04T04:14:16.829Z,4.37
2017-12-04T04:15:16.834Z,4.34
2017-12-04T04:16:16.775Z,4.38
2017-12-04T04:17:16.707Z,4.38
2017-12-04T04:18:16.672Z,4.40
2017-12-04T04:19:16.635Z,4.37
2017-12-04T04:20:16.609Z,4.35
2017-12-04T04:21:16.605Z,4.31
2017-12-04T04:22:16.533Z,4.37
2017-12-04T04:23:17.763Z,4.40
2017-12-04T04:24:16.507Z,4.45
2017-12-04T04:25:16.388Z,4.35
2017-12-04T04:26:16.363Z,4.34
2017-12-04T04:27:16.307Z,4.26
2017-12-04T04:28:16.286Z,4.38
2017-12-04T04:29:16.240Z,4.28
2017-12-04T04:30:16.260Z,4.23
2017-12-04T04:31:16.220Z,4.35
2017-12-04T04:32:16.121Z,4.31
2017-12-04T04:33:16.089Z,4.22
2017-12-04T04:34:16.029Z,4.22
2017-12-04T04:35:16.032Z,4.24
2017-12-04T04:36:15.953Z,4.30
2017-12-04T04:37:15.908Z,4.24
2017-12-04T04:38:16.297Z,4.32
2017-12-04T04:39:15.834Z,4.34
2017-12-04T04:40:15.836Z,4.28
2017-12-04T04:41:15.759Z,4.34
2017-12-04T04:42:15.753Z,4.37
2017-12-04T04:43:15.691Z,4.41
2017-12-04T04:44:16.693Z,4.37
2017-12-04T04:45:15.595Z,4.38
2017-12-04T04:46:15.570Z,4.38
2017-12-04T04:47:15.569Z,4.45
2017-12-04T04:48:15.569Z,4.42
2017-12-04T04:49:15.447Z,4.32
2017-12-04T04:50:15.850Z,4.44
2017-12-04T04:51:15.411Z,4.38
2017-12-04T04:52:15.306Z,4.48
2017-12-04T04:53:15.266Z,4.37
2017-12-04T04:54:15.270Z,4.37
2017-12-04T04:55:15.224Z,4.44
2017-12-04T04:56:15.239Z,4.38
2017-12-04T04:57:15.107Z,4.44
2017-12-04T04:58:15.065Z,4.44
2017-12-04T04:59:15.055Z,4.44
2017-12-04T05:00:15.001Z,4.41
2017-12-04T05:01:14.973Z,4.42
2017-12-04T05:02:14.944Z,4.48
2017-12-04T05:03:14.937Z,4.40
2017-12-04T05:04:14.857Z,4.45
2017-12-04T05:05:14.793Z,4.41
2017-12-04T05:06:14.784Z,4.42
2017-12-04T05:07:14.748Z,4.45
2017-12-04T05:08:14.681Z,4.44
2017-12-04T05:09:14.687Z,4.48
2017-12-04T05:10:14.650Z,4.49
2017-12-04T05:11:14.577Z,4.50
2017-12-04T05:12:14.535Z,4.44
2017-12-04T05:13:14.471Z,4.48
2017-12-04T05:14:14.430Z,4.52
2017-12-04T05:15:14.435Z,4.42
2017-12-04T05:16:14.350Z,4.45
2017-12-04T05:17:14.327Z,4.52
2017-12-04T05:18:14.330Z,4.48
2017-12-04T05:19:14.234Z,4.45
2017-12-04T05:20:14.194Z,4.44
2017-12-04T05:21:14.148Z,4.44
2017-12-04T05:22:14.225Z,4.48
2017-12-04T05:23:14.101Z,4.48
2017-12-04T05:24:14.033Z,4.40
2017-12-04T05:25:13.995Z,4.50
2017-12-04T05:26:13.954Z,4.45
2017-12-04T05:27:13.910Z,4.44
2017-12-04T05:28:13.873Z,4.48
2017-12-04T05:29:13.833Z,4.42
2017-12-04T05:30:13.795Z,4.45
2017-12-04T05:31:13.752Z,4.45
2017-12-04T05:32:13.713Z,4.49
2017-12-04T05:33:13.673Z,4.48
2017-12-04T05:34:13.635Z,4.49
2017-12-04T05:35:14.236Z,4.48
2017-12-04T05:36:13.556Z,4.42
2017-12-04T05:37:13.514Z,4.45
2017-12-04T05:38:13.474Z,4.50
2017-12-04T05:39:13.434Z,4.44
2017-12-04T05:40:13.396Z,4.48
2017-12-04T05:41:13.353Z,4.50
2017-12-04T05:42:13.315Z,4.52
2017-12-04T05:43:13.276Z,4.52
2017-12-04T05:44:13.236Z,4.58
2017-12-04T05:45:13.196Z,4.50
2017-12-04T05:46:13.155Z,4.60
2017-12-04T05:47:13.115Z,4.50
2017-12-04T05:48:13.076Z,4.56
2017-12-04T05:49:13.035Z,4.52
2017-12-04T05:50:13.000Z,4.60
2017-12-04T05:51:12.957Z,4.55
2017-12-04T05:52:12.917Z,4.62
2017-12-04T05:53:12.876Z,4.55
2017-12-04T05:54:12.836Z,4.60
2017-12-04T05:55:12.797Z,4.52
2017-12-04T05:56:12.758Z,4.56
2017-12-04T05:57:12.717Z,4.56
2017-12-04T05:58:12.677Z,4.59
2017-12-04T05:59:12.640Z,4.53
2017-12-04T06:00:12.599Z,4.48
2017-12-04T06:01:12.559Z,4.55
2017-12-04T06:02:12.518Z,4.53
2017-12-04T06:03:12.683Z,4.53
2017-12-04T06:04:12.437Z,4.50
2017-12-04T06:05:12.397Z,4.55
2017-12-04T06:06:12.358Z,4.53
2017-12-04T06:07:12.320Z,4.56
2017-12-04T06:08:12.289Z,4.52
2017-12-04T06:09:12.237Z,4.59
2017-12-04T06:10:12.198Z,4.52
2017-12-04T06:11:12.165Z,4.48
2017-12-04T06:12:12.420Z,4.53
2017-12-04T06:13:12.078Z,4.55
2017-12-04T06:14:12.039Z,4.55
2017-12-04T06:15:11.997Z,4.58
2017-12-04T06:16:11.959Z,4.59
2017-12-04T06:17:11.918Z,4.56
2017-12-04T06:18:11.880Z,4.55
2017-12-04T06:19:11.839Z,4.56
2017-12-04T06:20:11.800Z,4.58
2017-12-04T06:21:11.757Z,4.52
2017-12-04T06:22:11.718Z,4.62
2017-12-04T06:23:11.680Z,4.55
2017-12-04T06:24:11.639Z,4.60
2017-12-04T06:25:11.599Z,4.55
2017-12-04T06:26:11.560Z,4.59
2017-12-04T06:27:11.520Z,4.59
2017-12-04T06:28:11.646Z,4.63
2017-12-04T06:29:11.444Z,4.58
2017-12-04T06:30:11.410Z,4.59
2017-12-04T06:31:11.359Z,4.62
2017-12-04T06:32:11.322Z,4.73
2017-12-04T06:33:11.280Z,4.63
2017-12-04T06:34:11.240Z,4.67
2017-12-04T06:35:11.200Z,4.73
2017-12-04T06:36:11.159Z,4.62
2017-12-04T06:37:11.119Z,4.62
2017-12-04T06:38:11.079Z,4.62
2017-12-04T06:39:11.040Z,4.70
2017-12-04T06:40:11.000Z,4.66
2017-12-04T06:41:10.961Z,4.66
2017-12-04T06:42:10.922Z,4.74
2017-12-04T06:43:10.880Z,4.71
2017-12-04T06:44:10.842Z,4.84
2017-12-04T06:45:10.801Z,4.75
2017-12-04T06:46:10.761Z,4.75
2017-12-04T06:47:10.720Z,4.80
2017-12-04T06:48:10.994Z,4.78
2017-12-04T06:49:10.644Z,4.75
2017-12-04T06:50:10.603Z,4.73
2017-12-04T06:51:10.563Z,4.75
2017-12-04T06:52:10.523Z,4.78
2017-12-04T06:53:10.487Z,4.84
2017-12-04T06:54:10.445Z,4.75
2017-12-04T06:55:10.527Z,4.82
2017-12-04T06:56:10.368Z,4.78
2017-12-04T06:57:10.324Z,4.84
2017-12-04T06:58:10.285Z,4.78
2017-12-04T06:59:10.245Z,4.77
2017-12-04T07:00:10.210Z,4.84
2017-12-04T07:01:10.166Z,4.77
2017-12-04T07:02:10.125Z,4.86
2017-12-04T07:03:10.092Z,4.78
2017-12-04T07:04:10.046Z,4.84
2017-12-04T07:05:10.008Z,4.87
2017-12-04T07:06:09.969Z,4.92
2017-12-04T07:07:09.929Z,4.96
2017-12-04T07:08:09.889Z,4.94
2017-12-04T07:09:09.848Z,4.89
2017-12-04T07:10:09.810Z,4.92
2017-12-04T07:11:09.770Z,4.90
2017-12-04T07:12:09.730Z,4.89
2017-12-04T07:13:09.689Z,4.94
2017-12-04T07:14:09.650Z,4.82
2017-12-04T07:15:09.636Z,4.93
2017-12-04T07:16:09.603Z,4.89
2017-12-04T07:17:09.529Z,4.90
2017-12-04T07:18:09.493Z,4.99
2017-12-04T07:19:09.455Z,5.02
2017-12-04T07:20:09.412Z,5.00
2017-12-04T07:21:09.375Z,5.04
2017-12-04T07:22:09.334Z,4.93
2017-12-04T07:23:09.296Z,4.90
2017-12-04T07:24:09.256Z,5.04
2017-12-04T07:25:09.216Z,5.02
2017-12-04T07:26:09.176Z,5.05
2017-12-04T07:27:09.137Z,4.99
2017-12-04T07:28:09.097Z,4.99
2017-12-04T07:29:09.058Z,5.05
2017-12-04T07:30:09.051Z,4.97
2017-12-04T07:31:08.979Z,5.02
2017-12-04T07:32:08.945Z,5.00
2017-12-04T07:33:08.900Z,5.07
2017-12-04T07:34:08.861Z,5.07
2017-12-04T07:35:09.581Z,5.11
2017-12-04T07:36:08.783Z,5.07
2017-12-04T07:37:08.742Z,5.10
2017-12-04T07:38:08.704Z,5.08
2017-12-04T07:39:08.664Z,5.08
2017-12-04T07:40:08.626Z,5.05
2017-12-04T07:41:08.585Z,5.07
2017-12-04T07:42:08.546Z,5.10
2017-12-04T07:43:08.507Z,5.12
2017-12-04T07:44:08.467Z,5.11
2017-12-04T07:45:08.429Z,5.11
2017-12-04T07:46:08.389Z,5.21
2017-12-04T07:47:08.352Z,5.08
2017-12-04T07:48:08.863Z,5.14
2017-12-04T07:49:08.272Z,5.21
2017-12-04T07:50:08.232Z,5.17
2017-12-04T07:51:08.195Z,5.11
2017-12-04T07:52:08.154Z,5.20
2017-12-04T07:53:08.116Z,5.21
2017-12-04T07:54:08.075Z,5.25
2017-12-04T07:55:08.036Z,5.23
2017-12-04T07:56:07.998Z,5.17
2017-12-04T07:57:07.956Z,5.23
2017-12-04T07:58:07.931Z,5.26
2017-12-04T07:59:08.081Z,5.21
2017-12-04T08:00:08.211Z,5.12
2017-12-04T08:01:07.801Z,5.29
2017-12-04T08:02:07.761Z,5.23
2017-12-04T08:03:07.723Z,5.28
2017-12-04T08:04:07.818Z,5.29
2017-12-04T08:05:07.643Z,5.25
2017-12-04T08:06:07.605Z,5.33
2017-12-04T08:07:07.567Z,5.32
2017-12-04T08:08:07.529Z,5.32
2017-12-04T08:09:07.488Z,5.32
2017-12-04T08:10:07.448Z,5.30
2017-12-04T08:11:07.411Z,5.32
2017-12-04T08:12:07.370Z,5.35
2017-12-04T08:13:07.331Z,5.29
2017-12-04T08:14:07.292Z,5.30
2017-12-04T08:15:07.253Z,5.32
2017-12-04T08:16:07.214Z,5.38
2017-12-04T08:17:07.174Z,5.33
2017-12-04T08:18:07.135Z,5.36
2017-12-04T08:19:07.096Z,5.33
2017-12-04T08:20:07.058Z,5.43
2017-12-04T08:21:07.018Z,5.35
2017-12-04T08:22:07.835Z,5.38
2017-12-04T08:23:06.941Z,5.33
2017-12-04T08:24:06.901Z,5.36
2017-12-04T08:25:06.861Z,5.35
2017-12-04T08:26:06.822Z,5.41
2017-12-04T08:27:06.783Z,5.47
2017-12-04T08:28:06.744Z,5.47
2017-12-04T08:29:06.705Z,5.48
2017-12-04T08:30:06.666Z,5.47
2017-12-04T08:31:06.628Z,5.47
2017-12-04T08:32:06.601Z,5.46
2017-12-04T08:33:06.548Z,5.44
2017-12-04T08:34:06.504Z,5.43
2017-12-04T08:35:06.471Z,5.48
2017-12-04T08:36:06.433Z,5.47
2017-12-04T08:37:06.392Z,5.46
2017-12-04T08:38:06.357Z,5.44
2017-12-04T08:39:06.316Z,5.44
2017-12-04T08:40:06.277Z,5.57
2017-12-04T08:41:06.237Z,5.54
2017-12-04T08:42:06.199Z,5.59
2017-12-04T08:43:06.160Z,5.62
2017-12-04T08:44:06.121Z,5.62
2017-12-04T08:45:06.083Z,5.66
2017-12-04T08:46:06.044Z,5.59
2017-12-04T08:47:06.004Z,5.72
2017-12-04T08:48:05.966Z,5.72
2017-12-04T08:49:05.928Z,5.73
2017-12-04T08:50:05.887Z,5.84
2017-12-04T08:51:05.852Z,5.80
2017-12-04T08:52:05.809Z,5.87
2017-12-04T08:53:05.772Z,5.90
2017-12-04T08:54:05.733Z,5.87
2017-12-04T08:55:05.693Z,5.86
2017-12-04T08:56:05.661Z,5.87
2017-12-04T08:57:05.616Z,5.93
2017-12-04T08:58:05.578Z,5.93
2017-12-04T08:59:05.540Z,5.91
2017-12-04T09:00:05.502Z,5.90
2017-12-04T09:01:05.462Z,5.86
2017-12-04T09:02:05.425Z,5.94
2017-12-04T09:03:05.388Z,5.93
2017-12-04T09:04:05.350Z,5.87
2017-12-04T09:05:05.301Z,5.90
2017-12-04T09:06:05.271Z,5.97
2017-12-04T09:07:05.232Z,5.97
2017-12-04T09:08:05.194Z,5.87
2017-12-04T09:09:05.155Z,5.86
2017-12-04T09:10:05.118Z,5.87
2017-12-04T09:11:05.078Z,5.91
2017-12-04T09:12:05.047Z,5.98
2017-12-04T09:13:05.000Z,5.97
2017-12-04T09:14:04.964Z,5.99
2017-12-04T09:15:04.924Z,6.05
2017-12-04T09:16:04.886Z,6.01
2017-12-04T09:17:04.847Z,5.97
2017-12-04T09:18:04.811Z,5.99
2017-12-04T09:19:04.770Z,6.01
2017-12-04T09:20:04.733Z,6.02
2017-12-04T09:21:05.444Z,6.01
2017-12-04T09:22:04.657Z,6.01
2017-12-04T09:23:04.618Z,6.08
2017-12-04T09:24:04.579Z,6.11
2017-12-04T09:25:04.548Z,6.11
2017-12-04T09:26:04.530Z,6.09
2017-12-04T09:27:04.466Z,6.08
2017-12-04T09:28:04.427Z,6.01
2017-12-04T09:29:04.390Z,6.12
2017-12-04T09:30:04.349Z,6.16
2017-12-04T09:31:04.318Z,6.16
2017-12-04T09:32:04.274Z,6.19
2017-12-04T09:33:04.235Z,6.17
2017-12-04T09:34:04.197Z,6.17
2017-12-04T09:35:04.157Z,6.19
2017-12-04T09:36:04.120Z,6.19
2017-12-04T09:37:04.082Z,6.16
2017-12-04T09:38:04.042Z,6.26
2017-12-04T09:39:04.005Z,6.20
2017-12-04T09:40:03.967Z,6.19
2017-12-04T09:41:03.927Z,6.19
2017-12-04T09:42:03.890Z,6.16
2017-12-04T09:43:03.850Z,6.20
2017-12-04T09:44:03.813Z,6.08
2017-12-04T09:45:03.774Z,6.22
2017-12-04T09:46:03.735Z,6.20
2017-12-04T09:47:03.697Z,6.14
2017-12-04T09:48:03.687Z,6.16
2017-12-04T09:49:03.620Z,6.05
2017-12-04T09:50:03.583Z,6.12
2017-12-04T09:51:03.544Z,6.22
2017-12-04T09:52:03.511Z,6.26
2017-12-04T09:53:03.468Z,6.26
2017-12-04T09:54:03.429Z,6.24
2017-12-04T09:55:03.391Z,6.35
2017-12-04T09:56:03.352Z,6.35
2017-12-04T09:57:03.315Z,6.30
2017-12-04T09:58:03.281Z,6.38
2017-12-04T09:59:03.241Z,6.42
2017-12-04T10:00:03.201Z,6.38
2017-12-04T10:01:03.163Z,6.49
2017-12-04T10:02:03.127Z,6.45
2017-12-04T10:03:03.087Z,6.62
2017-12-04T10:04:03.049Z,6.56
2017-12-04T10:05:03.011Z,6.54
2017-12-04T10:06:02.971Z,6.52
2017-12-04T10:07:02.935Z,6.54
2017-12-04T10:08:02.896Z,6.74
2017-12-04T10:09:04.510Z,6.63
2017-12-04T10:10:02.879Z,6.57
2017-12-04T10:11:02.783Z,6.64
2017-12-04T10:12:02.746Z,6.69
2017-12-04T10:13:02.708Z,6.67
2017-12-04T10:14:02.672Z,6.77
2017-12-04T10:15:02.631Z,6.77
2017-12-04T10:16:02.595Z,6.69
2017-12-04T10:17:02.556Z,6.72
2017-12-04T10:18:02.520Z,6.72
2017-12-04T10:19:02.480Z,6.70
2017-12-04T10:20:02.443Z,6.74
2017-12-04T10:21:02.404Z,6.84
2017-12-04T10:22:02.366Z,6.78
2017-12-04T10:23:02.330Z,6.87
2017-12-04T10:24:02.291Z,6.81
2017-12-04T10:25:02.251Z,6.82
2017-12-04T10:26:02.216Z,6.78
2017-12-04T10:27:02.182Z,6.85
2017-12-04T10:28:02.144Z,6.75
2017-12-04T10:29:02.103Z,6.81
2017-12-04T10:30:02.069Z,6.77
2017-12-04T10:31:02.028Z,6.85
2017-12-04T10:32:01.993Z,6.78
2017-12-04T10:33:01.952Z,6.74
2017-12-04T10:34:01.916Z,6.75
2017-12-04T10:35:01.877Z,6.75
2017-12-04T10:36:01.840Z,6.88
2017-12-04T10:37:01.801Z,6.74
2017-12-04T10:38:01.767Z,6.88
2017-12-04T10:39:01.727Z,6.84
2017-12-04T10:40:01.686Z,6.88
2017-12-04T10:41:01.650Z,6.77
2017-12-04T10:42:01.613Z,6.82
2017-12-04T10:43:01.578Z,6.78
2017-12-04T10:44:01.539Z,6.85
2017-12-04T10:45:01.499Z,6.78
2017-12-04T10:46:01.461Z,6.78
2017-12-04T10:47:01.425Z,6.78
2017-12-04T10:48:01.387Z,6.84
2017-12-04T10:49:01.347Z,6.78
2017-12-04T10:50:01.312Z,6.79
2017-12-04T10:51:01.272Z,6.79
2017-12-04T10:52:01.236Z,6.84
2017-12-04T10:53:01.222Z,6.85
2017-12-04T10:54:01.159Z,6.88
2017-12-04T10:55:01.141Z,6.88
2017-12-04T10:56:01.085Z,6.84
2017-12-04T10:57:01.048Z,6.85
2017-12-04T10:58:01.230Z,6.84
2017-12-04T10:59:00.973Z,6.85
2017-12-04T11:00:00.934Z,6.92
2017-12-04T11:01:00.894Z,6.87
2017-12-04T11:02:00.858Z,6.85
2017-12-04T11:03:00.821Z,6.89
2017-12-04T11:04:00.784Z,6.85
2017-12-04T11:05:00.743Z,6.81
2017-12-04T11:06:00.707Z,6.88
2017-12-04T11:07:00.670Z,6.82
2017-12-04T11:08:00.632Z,6.93
2017-12-04T11:09:00.593Z,6.82
2017-12-04T11:10:00.559Z,6.81
2017-12-04T11:11:00.518Z,6.93
2017-12-04T11:12:00.481Z,6.87
2017-12-04T11:13:00.443Z,6.89
2017-12-04T11:14:00.404Z,6.85
2017-12-04T11:15:00.369Z,6.93
2017-12-04T11:16:00.331Z,6.88
2017-12-04T11:17:00.296Z,6.93
2017-12-04T11:18:00.261Z,6.87
2017-12-04T11:19:00.216Z,6.89
2017-12-04T11:20:00.178Z,6.84
2017-12-04T11:21:00.142Z,6.84
2017-12-04T11:22:00.103Z,6.93
2017-12-04T11:23:00.066Z,6.82
2017-12-04T11:24:00.027Z,6.93
2017-12-04T11:24:59.992Z,6.82
2017-12-04T11:25:59.952Z,6.87
2017-12-04T11:26:59.962Z,6.95
2017-12-04T11:27:59.877Z,6.96
2017-12-04T11:28:59.838Z,6.92
2017-12-04T11:29:59.799Z,7.00
2017-12-04T11:30:59.763Z,6.96
2017-12-04T11:31:59.726Z,7.00
2017-12-04T11:33:00.038Z,6.97
2017-12-04T11:33:59.657Z,6.97
2017-12-04T11:34:59.612Z,6.85
2017-12-04T11:35:59.576Z,6.95
2017-12-04T11:36:59.540Z,6.93
2017-12-04T11:37:59.499Z,6.85
2017-12-04T11:38:59.461Z,6.95
2017-12-04T11:39:59.425Z,6.89
2017-12-04T11:40:59.379Z,6.96
2017-12-04T11:41:59.349Z,6.82
2017-12-04T11:42:59.310Z,6.85
2017-12-04T11:43:59.272Z,6.88
2017-12-04T11:44:59.234Z,6.89
2017-12-04T11:45:59.196Z,6.99
2017-12-04T11:46:59.160Z,6.97
2017-12-04T11:47:59.121Z,6.96
2017-12-04T11:48:59.084Z,6.99
2017-12-04T11:49:59.048Z,7.05
2017-12-04T11:50:59.006Z,7.07
2017-12-04T11:51:58.970Z,6.96
2017-12-04T11:52:58.932Z,7.06
2017-12-04T11:53:58.920Z,7.06
2017-12-04T11:54:58.857Z,7.03
2017-12-04T11:55:58.812Z,7.03
2017-12-04T11:56:58.780Z,6.95
2017-12-04T11:57:58.744Z,7.06
2017-12-04T11:58:58.706Z,7.07
2017-12-04T11:59:58.663Z,7.03
2017-12-04T12:00:58.652Z,7.10
2017-12-04T12:01:58.592Z,7.10
2017-12-04T12:02:58.556Z,7.05
2017-12-04T12:03:58.518Z,7.06
2017-12-04T12:04:58.479Z,7.06
2017-12-04T12:05:58.441Z,7.10
2017-12-04T12:06:58.406Z,7.07
2017-12-04T12:07:58.367Z,7.11
2017-12-04T12:08:58.328Z,7.10
2017-12-04T12:09:58.383Z,7.05
2017-12-04T12:10:58.254Z,7.10
2017-12-04T12:11:58.214Z,7.07
2017-12-04T12:12:58.178Z,7.06
2017-12-04T12:13:58.140Z,7.03
2017-12-04T12:14:58.103Z,7.15
2017-12-04T12:15:58.066Z,7.11
2017-12-04T12:16:58.027Z,7.18
2017-12-04T12:17:57.990Z,7.20
2017-12-04T12:18:57.954Z,7.24
2017-12-04T12:19:57.918Z,7.29
2017-12-04T12:20:57.877Z,7.33
2017-12-04T12:21:57.840Z,7.35
2017-12-04T12:22:57.804Z,7.53
2017-12-04T12:23:57.766Z,7.32
2017-12-04T12:24:57.727Z,7.48
2017-12-04T12:25:57.691Z,7.42
2017-12-04T12:26:57.653Z,7.50
2017-12-04T12:27:57.618Z,7.47
2017-12-04T12:28:57.580Z,7.57
2017-12-04T12:29:57.542Z,7.53
2017-12-04T12:30:57.505Z,7.48
2017-12-04T12:31:57.469Z,7.51
2017-12-04T12:32:57.431Z,7.54
2017-12-04T12:33:57.395Z,7.58
2017-12-04T12:34:57.358Z,7.60
2017-12-04T12:35:57.321Z,7.53
2017-12-04T12:36:57.283Z,7.56
2017-12-04T12:37:57.245Z,7.54
2017-12-04T12:38:57.210Z,7.56
2017-12-04T12:39:57.172Z,7.51
2017-12-04T12:40:57.134Z,7.53
2017-12-04T12:41:57.100Z,7.47
2017-12-04T12:42:57.062Z,7.43
2017-12-04T12:43:57.026Z,7.47
2017-12-04T12:44:56.995Z,7.51
2017-12-04T12:45:57.074Z,7.53
2017-12-04T12:46:56.914Z,7.60
2017-12-04T12:47:56.879Z,7.54
2017-12-04T12:48:56.838Z,7.50
2017-12-04T12:49:57.722Z,7.53
2017-12-04T12:50:56.766Z,7.57
2017-12-04T12:51:57.222Z,7.58
2017-12-04T12:52:56.693Z,7.63
2017-12-04T12:53:56.656Z,7.63
2017-12-04T12:54:56.618Z,7.67
2017-12-04T12:55:56.583Z,7.61
2017-12-04T12:56:56.543Z,7.58
2017-12-04T12:57:56.508Z,7.61
2017-12-04T12:58:56.471Z,7.57
2017-12-04T12:59:56.434Z,7.45
2017-12-04T13:00:56.396Z,7.51
2017-12-04T13:01:56.360Z,7.61
2017-12-04T13:02:56.323Z,7.66
2017-12-04T13:03:56.287Z,7.67
2017-12-04T13:04:56.249Z,7.66
2017-12-04T13:05:56.212Z,7.67
2017-12-04T13:06:56.175Z,7.77
2017-12-04T13:07:56.138Z,7.82
2017-12-04T13:08:56.101Z,7.82
2017-12-04T13:09:56.067Z,7.87
2017-12-04T13:10:56.029Z,8.00
2017-12-04T13:11:55.990Z,7.88
2017-12-04T13:12:55.954Z,8.00
2017-12-04T13:13:55.920Z,8.01
2017-12-04T13:14:55.881Z,7.98
2017-12-04T13:15:55.845Z,8.03
2017-12-04T13:16:55.808Z,8.00
2017-12-04T13:17:55.771Z,7.95